G. M. Dannevig — LINW — position and weather

sailwx.info

Track history (hours):
 
Tides and Currents Weather Stations Pressure Air Temp Water Temp Dewpoint Dewpoint Depression Visibility Wind Speed Wind Dir Waves Ship Positions

Oceanographic research ship G. M. Dannevig (Norway)

Detailed information on ship capabilities available from University of Delaware's Ocean Information Center.

Last reported at 2017-Dec-11 17:00 UTC. Time now 2017-Dec-13 13:19 UTC.
Position N 58°59' E 010°07'.

Length 27 m; draft 0.35 m.

Type: Dredging. MMSI: 258513000.

Date/timePositionNaut miles runAvg speedWind from/ knotsBaromVisibWave heightAir tempDewpointWater temp
2017-Dec-11 17:00N 58°59' E 010°07'611.2
2017-Dec-11 16:30N 59°00' E 010°18'611.1
2017-Dec-11 16:00N 59°02' E 010°28'511.0
2017-Dec-11 15:30N 59°07' E 010°33'510.3
2017-Dec-11 15:00N 59°12' E 010°36'510.8
2017-Dec-11 14:30N 59°17' E 010°34'510.9
2017-Dec-11 14:00N 59°23' E 010°33'510.8
2017-Dec-11 13:30N 59°28' E 010°29'1 1.1
2017-Dec-11 13:00N 59°28' E 010°29'5 9.1
2017-Dec-11 12:30N 59°24' E 010°35'2 4.8
2017-Dec-11 12:00N 59°22' E 010°36'5 9.6
2017-Dec-11 11:30N 59°18' E 010°38'510.0
2017-Dec-11 11:00N 59°13' E 010°40'2 3.7
2017-Dec-11 10:30N 59°11' E 010°41'0 0.1
2017-Dec-11 10:00N 59°11' E 010°41'510.1
2017-Dec-11 09:30N 59°06' E 010°44'4 7.4
2017-Dec-11 09:00N 59°02' E 010°46'3 5.8
2017-Dec-11 08:30N 59°02' E 010°40'5 9.5
2017-Dec-11 08:00N 59°01' E 010°31'4 8.9
2017-Dec-11 07:30N 59°00' E 010°23'4 8.5
2017-Dec-11 07:00N 58°60' E 010°14'4 8.5
2017-Dec-11 06:30N 58°60' E 010°06'4 7.9
2017-Dec-11 06:00N 59°03' E 010°02'0 0.0
2017-Dec-11 05:30N 59°03' E 010°02'0 0.0
2017-Dec-11 05:00N 59°03' E 010°02'0 0.0
2017-Dec-11 04:30N 59°03' E 010°02'0 0.0
2017-Dec-11 03:59N 59°03' E 010°02'0 0.0
2017-Dec-11 03:30N 59°03' E 010°02'0 0.0
2017-Dec-11 03:00N 59°03' E 010°02'0 0.0
2017-Dec-11 02:30N 59°03' E 010°02'0 0.0
2017-Dec-11 02:00N 59°03' E 010°02'0 0.0
2017-Dec-11 01:30N 59°03' E 010°02'0 0.0
2017-Dec-11 01:00N 59°03' E 010°02'0 0.0
2017-Dec-11 00:30N 59°03' E 010°02'0 0.0
2017-Dec-11 00:00N 59°03' E 010°02'0 0.0
2017-Dec-10 23:30N 59°03' E 010°02'0 0.0
2017-Dec-10 23:00N 59°03' E 010°02'0 0.0
2017-Dec-10 22:30N 59°03' E 010°02'0 0.0
2017-Dec-10 22:00N 59°03' E 010°02'0 0.0
2017-Dec-10 21:30N 59°03' E 010°02'0 0.0
2017-Dec-10 21:00N 59°03' E 010°02'0 0.0
2017-Dec-10 20:30N 59°03' E 010°02'0 0.0
2017-Dec-10 20:00N 59°03' E 010°02'0 0.0
2017-Dec-10 19:30N 59°03' E 010°02'0 0.0
2017-Dec-10 19:00N 59°03' E 010°02'2 4.6
2017-Dec-10 18:30N 59°01' E 010°03'4 8.3
2017-Dec-10 18:00N 58°57' E 010°03'4 8.4
2017-Dec-10 17:30N 58°56' E 009°54'7 2.8
2017-Dec-10 15:09N 59°02' E 009°47'2 9.9
2017-Dec-10 14:59N 59°03' E 009°44'3 2.5
2017-Dec-10 13:59N 59°03' E 009°40'3 4.7
2017-Dec-10 13:24N 59°02' E 009°44'3 8.1
2017-Dec-10 13:00N 58°59' E 009°45'5 9.2
2017-Dec-10 12:30N 58°55' E 009°42'5 9.2
2017-Dec-10 12:00N 58°51' E 009°36'4 8.8
2017-Dec-10 11:30N 58°48' E 009°30'4 8.8
2017-Dec-10 11:00N 58°46' E 009°23'22 7.5
2017-Dec-10 08:06N 58°29' E 008°57'1 8.6
2017-Dec-10 08:00N 58°28' E 008°56'4 8.6
2017-Dec-10 07:30N 58°25' E 008°50'2 0.2
2017-Dec-09 16:47N 58°25' E 008°45'3 9.0
2017-Dec-09 16:30N 58°24' E 008°49'5 9.4
2017-Dec-09 16:00N 58°20' E 008°54'4 8.5
2017-Dec-09 15:30N 58°17' E 008°59'4 7.2
2017-Dec-09 15:00N 58°14' E 009°04'5 9.4
2017-Dec-09 14:29N 58°10' E 009°10'  
2017-Dec-07 09:49N 57°36' E 009°58'0 0.0
2017-Dec-07 09:28N 57°36' E 009°58'0 0.0
2017-Dec-07 08:59N 57°36' E 009°58'0 0.0
2017-Dec-07 08:30N 57°36' E 009°58'0 0.0
2017-Dec-07 08:00N 57°36' E 009°58'0 0.0
2017-Dec-07 07:29N 57°36' E 009°58'0 0.0
2017-Dec-07 06:59N 57°36' E 009°58'0 0.0
2017-Dec-07 06:30N 57°36' E 009°58'0 0.0
2017-Dec-07 05:59N 57°36' E 009°58'  
2017-Dec-04 10:30N 58°06' E 008°10'  
Track history (hours):
 
Tides and Currents Weather Stations Pressure Air Temp Water Temp Dewpoint Dewpoint Depression Visibility Wind Speed Wind Dir Waves Ship Positions

Oceanographic research ship G. M. Dannevig (Norway)

Detailed information on ship capabilities available from University of Delaware's Ocean Information Center.

Last reported at 2017-Dec-11 17:00 UTC. Time now 2017-Dec-13 13:19 UTC.
Position N 58°59' E 010°07'.

Length 27 m; draft 0.35 m.

Type: Dredging. MMSI: 258513000.

Date/timePositionNaut miles runAvg speedWind from/ knotsBaromVisibWave heightAir tempDewpointWater temp
2017-Dec-11 17:00N 58°59' E 010°07'611.2
2017-Dec-11 16:30N 59°00' E 010°18'611.1
2017-Dec-11 16:00N 59°02' E 010°28'511.0
2017-Dec-11 15:30N 59°07' E 010°33'510.3
2017-Dec-11 15:00N 59°12' E 010°36'510.8
2017-Dec-11 14:30N 59°17' E 010°34'510.9
2017-Dec-11 14:00N 59°23' E 010°33'510.8
2017-Dec-11 13:30N 59°28' E 010°29'1 1.1
2017-Dec-11 13:00N 59°28' E 010°29'5 9.1
2017-Dec-11 12:30N 59°24' E 010°35'2 4.8
2017-Dec-11 12:00N 59°22' E 010°36'5 9.6
2017-Dec-11 11:30N 59°18' E 010°38'510.0
2017-Dec-11 11:00N 59°13' E 010°40'2 3.7
2017-Dec-11 10:30N 59°11' E 010°41'0 0.1
2017-Dec-11 10:00N 59°11' E 010°41'510.1
2017-Dec-11 09:30N 59°06' E 010°44'4 7.4
2017-Dec-11 09:00N 59°02' E 010°46'3 5.8
2017-Dec-11 08:30N 59°02' E 010°40'5 9.5
2017-Dec-11 08:00N 59°01' E 010°31'4 8.9
2017-Dec-11 07:30N 59°00' E 010°23'4 8.5
2017-Dec-11 07:00N 58°60' E 010°14'4 8.5
2017-Dec-11 06:30N 58°60' E 010°06'4 7.9
2017-Dec-11 06:00N 59°03' E 010°02'0 0.0
2017-Dec-11 05:30N 59°03' E 010°02'0 0.0
2017-Dec-11 05:00N 59°03' E 010°02'0 0.0
2017-Dec-11 04:30N 59°03' E 010°02'0 0.0
2017-Dec-11 03:59N 59°03' E 010°02'0 0.0
2017-Dec-11 03:30N 59°03' E 010°02'0 0.0
2017-Dec-11 03:00N 59°03' E 010°02'0 0.0
2017-Dec-11 02:30N 59°03' E 010°02'0 0.0
2017-Dec-11 02:00N 59°03' E 010°02'0 0.0
2017-Dec-11 01:30N 59°03' E 010°02'0 0.0
2017-Dec-11 01:00N 59°03' E 010°02'0 0.0
2017-Dec-11 00:30N 59°03' E 010°02'0 0.0
2017-Dec-11 00:00N 59°03' E 010°02'0 0.0
2017-Dec-10 23:30N 59°03' E 010°02'0 0.0
2017-Dec-10 23:00N 59°03' E 010°02'0 0.0
2017-Dec-10 22:30N 59°03' E 010°02'0 0.0
2017-Dec-10 22:00N 59°03' E 010°02'0 0.0
2017-Dec-10 21:30N 59°03' E 010°02'0 0.0
2017-Dec-10 21:00N 59°03' E 010°02'0 0.0
2017-Dec-10 20:30N 59°03' E 010°02'0 0.0
2017-Dec-10 20:00N 59°03' E 010°02'0 0.0
2017-Dec-10 19:30N 59°03' E 010°02'0 0.0
2017-Dec-10 19:00N 59°03' E 010°02'2 4.6
2017-Dec-10 18:30N 59°01' E 010°03'4 8.3
2017-Dec-10 18:00N 58°57' E 010°03'4 8.4
2017-Dec-10 17:30N 58°56' E 009°54'7 2.8
2017-Dec-10 15:09N 59°02' E 009°47'2 9.9
2017-Dec-10 14:59N 59°03' E 009°44'3 2.5
2017-Dec-10 13:59N 59°03' E 009°40'3 4.7
2017-Dec-10 13:24N 59°02' E 009°44'3 8.1
2017-Dec-10 13:00N 58°59' E 009°45'5 9.2
2017-Dec-10 12:30N 58°55' E 009°42'5 9.2
2017-Dec-10 12:00N 58°51' E 009°36'4 8.8
2017-Dec-10 11:30N 58°48' E 009°30'4 8.8
2017-Dec-10 11:00N 58°46' E 009°23'22 7.5
2017-Dec-10 08:06N 58°29' E 008°57'1 8.6
2017-Dec-10 08:00N 58°28' E 008°56'4 8.6
2017-Dec-10 07:30N 58°25' E 008°50'2 0.2
2017-Dec-09 16:47N 58°25' E 008°45'3 9.0
2017-Dec-09 16:30N 58°24' E 008°49'5 9.4
2017-Dec-09 16:00N 58°20' E 008°54'4 8.5
2017-Dec-09 15:30N 58°17' E 008°59'4 7.2
2017-Dec-09 15:00N 58°14' E 009°04'5 9.4
2017-Dec-09 14:29N 58°10' E 009°10'  
2017-Dec-07 09:49N 57°36' E 009°58'0 0.0
2017-Dec-07 09:28N 57°36' E 009°58'0 0.0
2017-Dec-07 08:59N 57°36' E 009°58'0 0.0
2017-Dec-07 08:30N 57°36' E 009°58'0 0.0
2017-Dec-07 08:00N 57°36' E 009°58'0 0.0
2017-Dec-07 07:29N 57°36' E 009°58'0 0.0
2017-Dec-07 06:59N 57°36' E 009°58'0 0.0
2017-Dec-07 06:30N 57°36' E 009°58'0 0.0
2017-Dec-07 05:59N 57°36' E 009°58'  
2017-Dec-04 10:30N 58°06' E 008°10'  

Dump ship's entire track history